sensor_id;sensor_type;location;lat;lon;timestamp;temperature;humidity
46356;DHT22;32066;49.474;11.106;2023-06-05T00:01:39;17.90;53.10
46356;DHT22;32066;49.474;11.106;2023-06-05T00:04:08;17.90;53.50
46356;DHT22;32066;49.474;11.106;2023-06-05T00:06:36;17.90;53.30
46356;DHT22;32066;49.474;11.106;2023-06-05T00:09:05;18.00;52.50
46356;DHT22;32066;49.474;11.106;2023-06-05T00:11:34;17.90;52.60
46356;DHT22;32066;49.474;11.106;2023-06-05T00:14:03;17.80;53.10
46356;DHT22;32066;49.474;11.106;2023-06-05T00:16:36;17.70;53.10
46356;DHT22;32066;49.474;11.106;2023-06-05T00:19:05;17.70;53.30
46356;DHT22;32066;49.474;11.106;2023-06-05T00:21:33;17.60;53.30
46356;DHT22;32066;49.474;11.106;2023-06-05T00:24:02;17.60;53.20
46356;DHT22;32066;49.474;11.106;2023-06-05T00:26:31;17.50;53.30
46356;DHT22;32066;49.474;11.106;2023-06-05T00:28:59;17.40;53.50
46356;DHT22;32066;49.474;11.106;2023-06-05T00:31:28;17.40;53.60
46356;DHT22;32066;49.474;11.106;2023-06-05T00:34:00;17.30;53.60
46356;DHT22;32066;49.474;11.106;2023-06-05T00:36:29;17.30;53.50
46356;DHT22;32066;49.474;11.106;2023-06-05T00:38:58;17.40;54.40
46356;DHT22;32066;49.474;11.106;2023-06-05T00:41:27;17.30;53.50
46356;DHT22;32066;49.474;11.106;2023-06-05T00:43:56;17.30;53.50
46356;DHT22;32066;49.474;11.106;2023-06-05T00:46:24;17.40;53.30
46356;DHT22;32066;49.474;11.106;2023-06-05T00:48:53;17.40;53.00
46356;DHT22;32066;49.474;11.106;2023-06-05T00:51:24;17.30;53.00
46356;DHT22;32066;49.474;11.106;2023-06-05T00:53:53;17.40;52.90
46356;DHT22;32066;49.474;11.106;2023-06-05T00:56:23;17.40;52.70
46356;DHT22;32066;49.474;11.106;2023-06-05T00:58:52;17.50;52.50
46356;DHT22;32066;49.474;11.106;2023-06-05T01:01:24;17.40;52.80
46356;DHT22;32066;49.474;11.106;2023-06-05T01:03:54;17.30;52.90
46356;DHT22;32066;49.474;11.106;2023-06-05T01:06:26;17.30;53.00
46356;DHT22;32066;49.474;11.106;2023-06-05T01:08:57;17.30;53.00
46356;DHT22;32066;49.474;11.106;2023-06-05T01:11:34;17.30;52.60
46356;DHT22;32066;49.474;11.106;2023-06-05T01:14:11;17.20;53.30
46356;DHT22;32066;49.474;11.106;2023-06-05T01:16:47;17.20;53.00
46356;DHT22;32066;49.474;11.106;2023-06-05T01:19:17;17.20;52.70
46356;DHT22;32066;49.474;11.106;2023-06-05T01:21:48;17.00;52.90
46356;DHT22;32066;49.474;11.106;2023-06-05T01:24:20;17.10;52.90
46356;DHT22;32066;49.474;11.106;2023-06-05T01:26:58;17.10;53.00
46356;DHT22;32066;49.474;11.106;2023-06-05T01:29:34;17.10;52.60
46356;DHT22;32066;49.474;11.106;2023-06-05T01:32:07;17.10;52.70
46356;DHT22;32066;49.474;11.106;2023-06-05T01:34:42;17.00;53.10
46356;DHT22;32066;49.474;11.106;2023-06-05T01:37:14;17.00;53.10
46356;DHT22;32066;49.474;11.106;2023-06-05T01:39:47;17.10;52.60
46356;DHT22;32066;49.474;11.106;2023-06-05T01:42:18;17.00;52.70
46356;DHT22;32066;49.474;11.106;2023-06-05T01:44:47;17.00;52.80
46356;DHT22;32066;49.474;11.106;2023-06-05T01:47:16;16.90;53.40
46356;DHT22;32066;49.474;11.106;2023-06-05T01:49:47;16.80;53.10
46356;DHT22;32066;49.474;11.106;2023-06-05T01:52:15;16.90;53.30
46356;DHT22;32066;49.474;11.106;2023-06-05T01:54:47;16.90;53.20
46356;DHT22;32066;49.474;11.106;2023-06-05T01:57:15;16.80;53.00
46356;DHT22;32066;49.474;11.106;2023-06-05T01:59:44;17.00;52.50
46356;DHT22;32066;49.474;11.106;2023-06-05T02:02:15;16.80;52.70
46356;DHT22;32066;49.474;11.106;2023-06-05T02:04:44;16.90;52.50
46356;DHT22;32066;49.474;11.106;2023-06-05T02:07:13;16.60;53.20
46356;DHT22;32066;49.474;11.106;2023-06-05T02:09:42;16.60;53.10
46356;DHT22;32066;49.474;11.106;2023-06-05T02:12:14;16.40;53.40
46356;DHT22;32066;49.474;11.106;2023-06-05T02:14:43;16.50;53.50
46356;DHT22;32066;49.474;11.106;2023-06-05T02:17:14;16.70;53.10
46356;DHT22;32066;49.474;11.106;2023-06-05T02:19:43;16.50;53.20
46356;DHT22;32066;49.474;11.106;2023-06-05T02:22:11;16.60;52.90
46356;DHT22;32066;49.474;11.106;2023-06-05T02:24:40;16.70;52.70
46356;DHT22;32066;49.474;11.106;2023-06-05T02:27:09;16.80;52.60
46356;DHT22;32066;49.474;11.106;2023-06-05T02:29:41;16.60;53.20
46356;DHT22;32066;49.474;11.106;2023-06-05T02:32:09;16.60;53.20
46356;DHT22;32066;49.474;11.106;2023-06-05T02:34:38;16.70;53.30
46356;DHT22;32066;49.474;11.106;2023-06-05T02:37:07;16.60;52.70
46356;DHT22;32066;49.474;11.106;2023-06-05T02:39:37;16.60;53.10
46356;DHT22;32066;49.474;11.106;2023-06-05T02:42:06;16.50;53.40
46356;DHT22;32066;49.474;11.106;2023-06-05T02:44:40;16.50;53.80
46356;DHT22;32066;49.474;11.106;2023-06-05T02:47:09;16.40;53.90
46356;DHT22;32066;49.474;11.106;2023-06-05T02:49:38;16.30;54.20
46356;DHT22;32066;49.474;11.106;2023-06-05T02:52:07;16.30;54.10
46356;DHT22;32066;49.474;11.106;2023-06-05T02:54:37;16.40;53.50
46356;DHT22;32066;49.474;11.106;2023-06-05T02:57:08;16.50;53.60
46356;DHT22;32066;49.474;11.106;2023-06-05T02:59:41;16.50;53.20
46356;DHT22;32066;49.474;11.106;2023-06-05T03:02:13;16.50;53.20
46356;DHT22;32066;49.474;11.106;2023-06-05T03:04:44;16.40;53.40
46356;DHT22;32066;49.474;11.106;2023-06-05T03:07:25;16.40;53.70
46356;DHT22;32066;49.474;11.106;2023-06-05T03:09:53;16.30;53.60
46356;DHT22;32066;49.474;11.106;2023-06-05T03:12:22;16.40;53.60
46356;DHT22;32066;49.474;11.106;2023-06-05T03:14:53;16.40;53.70
46356;DHT22;32066;49.474;11.106;2023-06-05T03:17:22;16.40;53.90
46356;DHT22;32066;49.474;11.106;2023-06-05T03:19:53;16.40;53.90
46356;DHT22;32066;49.474;11.106;2023-06-05T03:22:21;16.20;54.20
46356;DHT22;32066;49.474;11.106;2023-06-05T03:24:51;16.00;54.90
46356;DHT22;32066;49.474;11.106;2023-06-05T03:27:20;16.20;54.20
46356;DHT22;32066;49.474;11.106;2023-06-05T03:29:49;16.30;54.20
46356;DHT22;32066;49.474;11.106;2023-06-05T03:32:20;16.50;54.30
46356;DHT22;32066;49.474;11.106;2023-06-05T03:34:49;16.50;53.90
46356;DHT22;32066;49.474;11.106;2023-06-05T03:37:19;16.50;54.20
46356;DHT22;32066;49.474;11.106;2023-06-05T03:39:48;16.30;54.40
46356;DHT22;32066;49.474;11.106;2023-06-05T03:42:16;16.30;54.60
46356;DHT22;32066;49.474;11.106;2023-06-05T03:44:45;16.20;55.00
46356;DHT22;32066;49.474;11.106;2023-06-05T03:47:14;16.30;55.00
46356;DHT22;32066;49.474;11.106;2023-06-05T03:49:50;16.20;55.10
46356;DHT22;32066;49.474;11.106;2023-06-05T03:52:21;16.10;55.50
46356;DHT22;32066;49.474;11.106;2023-06-05T03:54:51;16.10;55.40
46356;DHT22;32066;49.474;11.106;2023-06-05T03:57:21;16.30;55.40
46356;DHT22;32066;49.474;11.106;2023-06-05T03:59:51;16.10;55.90
46356;DHT22;32066;49.474;11.106;2023-06-05T04:02:19;16.20;56.00
46356;DHT22;32066;49.474;11.106;2023-06-05T04:04:51;16.30;55.40
46356;DHT22;32066;49.474;11.106;2023-06-05T04:07:20;16.10;55.80
46356;DHT22;32066;49.474;11.106;2023-06-05T04:09:49;16.20;56.00
46356;DHT22;32066;49.474;11.106;2023-06-05T04:12:19;16.20;56.20
46356;DHT22;32066;49.474;11.106;2023-06-05T04:14:48;16.30;55.80
46356;DHT22;32066;49.474;11.106;2023-06-05T04:17:17;16.50;55.90
46356;DHT22;32066;49.474;11.106;2023-06-05T04:19:45;16.30;56.00
46356;DHT22;32066;49.474;11.106;2023-06-05T04:22:17;16.60;55.60
46356;DHT22;32066;49.474;11.106;2023-06-05T04:24:46;16.50;55.70
46356;DHT22;32066;49.474;11.106;2023-06-05T04:27:15;16.60;55.80
46356;DHT22;32066;49.474;11.106;2023-06-05T04:29:43;16.50;56.00
46356;DHT22;32066;49.474;11.106;2023-06-05T04:32:14;16.60;56.00
46356;DHT22;32066;49.474;11.106;2023-06-05T04:34:44;16.80;56.00
46356;DHT22;32066;49.474;11.106;2023-06-05T04:37:12;16.80;55.80
46356;DHT22;32066;49.474;11.106;2023-06-05T04:39:44;16.90;55.00
46356;DHT22;32066;49.474;11.106;2023-06-05T04:42:13;16.90;54.90
46356;DHT22;32066;49.474;11.106;2023-06-05T04:44:47;16.90;54.90
46356;DHT22;32066;49.474;11.106;2023-06-05T04:47:22;16.90;55.30
46356;DHT22;32066;49.474;11.106;2023-06-05T04:49:51;16.90;55.20
46356;DHT22;32066;49.474;11.106;2023-06-05T04:52:21;17.10;55.30
46356;DHT22;32066;49.474;11.106;2023-06-05T04:54:53;17.70;74.00
46356;DHT22;32066;49.474;11.106;2023-06-05T04:57:22;18.40;69.80
46356;DHT22;32066;49.474;11.106;2023-06-05T04:59:53;18.80;62.00
46356;DHT22;32066;49.474;11.106;2023-06-05T05:02:23;19.00;54.90
46356;DHT22;32066;49.474;11.106;2023-06-05T05:04:52;18.60;53.10
46356;DHT22;32066;49.474;11.106;2023-06-05T05:07:21;18.20;53.70
46356;DHT22;32066;49.474;11.106;2023-06-05T05:09:55;18.00;54.10
46356;DHT22;32066;49.474;11.106;2023-06-05T05:12:24;18.00;54.40
46356;DHT22;32066;49.474;11.106;2023-06-05T05:14:53;18.10;54.30
46356;DHT22;32066;49.474;11.106;2023-06-05T05:17:22;18.00;54.40
46356;DHT22;32066;49.474;11.106;2023-06-05T05:19:51;17.90;54.60
46356;DHT22;32066;49.474;11.106;2023-06-05T05:22:20;17.90;54.50
46356;DHT22;32066;49.474;11.106;2023-06-05T05:24:49;17.90;53.80
46356;DHT22;32066;49.474;11.106;2023-06-05T05:27:20;17.90;54.50
46356;DHT22;32066;49.474;11.106;2023-06-05T05:29:50;17.90;54.10
46356;DHT22;32066;49.474;11.106;2023-06-05T05:32:19;17.90;54.40
46356;DHT22;32066;49.474;11.106;2023-06-05T05:34:48;17.90;54.90
46356;DHT22;32066;49.474;11.106;2023-06-05T05:37:17;18.10;54.90
46356;DHT22;32066;49.474;11.106;2023-06-05T05:39:46;18.20;54.20
46356;DHT22;32066;49.474;11.106;2023-06-05T05:42:15;18.10;54.20
46356;DHT22;32066;49.474;11.106;2023-06-05T05:44:47;18.40;53.80
46356;DHT22;32066;49.474;11.106;2023-06-05T05:47:15;18.30;53.90
46356;DHT22;32066;49.474;11.106;2023-06-05T05:49:44;18.40;54.10
46356;DHT22;32066;49.474;11.106;2023-06-05T05:52:13;18.20;54.30
46356;DHT22;32066;49.474;11.106;2023-06-05T05:54:41;18.20;54.90
46356;DHT22;32066;49.474;11.106;2023-06-05T05:57:10;18.30;54.20
46356;DHT22;32066;49.474;11.106;2023-06-05T05:59:39;18.30;54.60
46356;DHT22;32066;49.474;11.106;2023-06-05T06:02:13;18.30;55.00
46356;DHT22;32066;49.474;11.106;2023-06-05T06:04:43;18.30;55.00
46356;DHT22;32066;49.474;11.106;2023-06-05T06:07:13;18.30;54.80
46356;DHT22;32066;49.474;11.106;2023-06-05T06:09:41;18.30;55.10
46356;DHT22;32066;49.474;11.106;2023-06-05T06:12:11;18.30;54.70
46356;DHT22;32066;49.474;11.106;2023-06-05T06:14:39;18.40;55.50
46356;DHT22;32066;49.474;11.106;2023-06-05T06:17:08;18.50;54.90
46356;DHT22;32066;49.474;11.106;2023-06-05T06:19:40;18.60;54.60
46356;DHT22;32066;49.474;11.106;2023-06-05T06:22:09;18.70;54.30
46356;DHT22;32066;49.474;11.106;2023-06-05T06:24:40;18.80;54.20
46356;DHT22;32066;49.474;11.106;2023-06-05T06:27:09;18.80;54.70
46356;DHT22;32066;49.474;11.106;2023-06-05T06:29:47;18.90;54.80
46356;DHT22;32066;49.474;11.106;2023-06-05T06:32:18;18.90;55.40
46356;DHT22;32066;49.474;11.106;2023-06-05T06:34:50;19.00;55.10
46356;DHT22;32066;49.474;11.106;2023-06-05T06:37:20;19.10;55.40
46356;DHT22;32066;49.474;11.106;2023-06-05T06:39:49;19.30;54.90
46356;DHT22;32066;49.474;11.106;2023-06-05T06:42:17;19.40;55.30
46356;DHT22;32066;49.474;11.106;2023-06-05T06:44:59;19.50;55.20
46356;DHT22;32066;49.474;11.106;2023-06-05T06:47:29;19.60;55.60
46356;DHT22;32066;49.474;11.106;2023-06-05T06:50:00;19.60;55.60
46356;DHT22;32066;49.474;11.106;2023-06-05T06:52:29;19.70;56.00
46356;DHT22;32066;49.474;11.106;2023-06-05T06:54:58;19.70;56.10
46356;DHT22;32066;49.474;11.106;2023-06-05T06:57:26;19.80;56.30
46356;DHT22;32066;49.474;11.106;2023-06-05T06:59:55;19.90;57.20
46356;DHT22;32066;49.474;11.106;2023-06-05T07:02:25;20.00;56.60
46356;DHT22;32066;49.474;11.106;2023-06-05T07:04:53;20.20;56.30
46356;DHT22;32066;49.474;11.106;2023-06-05T07:07:25;20.20;56.70
46356;DHT22;32066;49.474;11.106;2023-06-05T07:09:55;20.40;56.80
46356;DHT22;32066;49.474;11.106;2023-06-05T07:12:24;20.50;56.80
46356;DHT22;32066;49.474;11.106;2023-06-05T07:14:53;20.50;56.90
46356;DHT22;32066;49.474;11.106;2023-06-05T07:17:21;20.60;56.60
46356;DHT22;32066;49.474;11.106;2023-06-05T07:19:53;20.70;57.60
46356;DHT22;32066;49.474;11.106;2023-06-05T07:22:21;20.70;57.00
46356;DHT22;32066;49.474;11.106;2023-06-05T07:24:53;20.70;57.00
46356;DHT22;32066;49.474;11.106;2023-06-05T07:27:22;20.70;57.10
46356;DHT22;32066;49.474;11.106;2023-06-05T07:29:51;20.90;56.90
46356;DHT22;32066;49.474;11.106;2023-06-05T07:32:19;20.90;56.80
46356;DHT22;32066;49.474;11.106;2023-06-05T07:34:48;21.00;57.10
46356;DHT22;32066;49.474;11.106;2023-06-05T07:37:17;21.10;57.00
46356;DHT22;32066;49.474;11.106;2023-06-05T07:39:45;21.20;57.10
46356;DHT22;32066;49.474;11.106;2023-06-05T07:42:19;21.30;56.80
46356;DHT22;32066;49.474;11.106;2023-06-05T07:44:48;21.50;56.70
46356;DHT22;32066;49.474;11.106;2023-06-05T07:47:17;21.60;56.20
46356;DHT22;32066;49.474;11.106;2023-06-05T07:49:56;21.60;56.00
46356;DHT22;32066;49.474;11.106;2023-06-05T07:52:25;21.70;55.80
46356;DHT22;32066;49.474;11.106;2023-06-05T07:54:54;21.70;55.50
46356;DHT22;32066;49.474;11.106;2023-06-05T07:57:25;21.80;55.50
46356;DHT22;32066;49.474;11.106;2023-06-05T07:59:54;21.90;55.70
46356;DHT22;32066;49.474;11.106;2023-06-05T08:02:23;21.90;55.60
46356;DHT22;32066;49.474;11.106;2023-06-05T08:04:51;21.90;55.40
46356;DHT22;32066;49.474;11.106;2023-06-05T08:07:20;22.00;55.40
46356;DHT22;32066;49.474;11.106;2023-06-05T08:09:49;22.00;56.00
46356;DHT22;32066;49.474;11.106;2023-06-05T08:12:18;22.00;56.10
46356;DHT22;32066;49.474;11.106;2023-06-05T08:14:49;22.10;55.90
46356;DHT22;32066;49.474;11.106;2023-06-05T08:17:18;22.20;56.10
46356;DHT22;32066;49.474;11.106;2023-06-05T08:19:46;22.30;55.70
46356;DHT22;32066;49.474;11.106;2023-06-05T08:22:15;22.30;55.40
46356;DHT22;32066;49.474;11.106;2023-06-05T08:24:44;22.30;55.70
46356;DHT22;32066;49.474;11.106;2023-06-05T08:27:14;22.40;56.50
46356;DHT22;32066;49.474;11.106;2023-06-05T08:29:42;22.60;56.00
46356;DHT22;32066;49.474;11.106;2023-06-05T08:32:14;22.70;56.40
46356;DHT22;32066;49.474;11.106;2023-06-05T08:34:44;22.70;56.30
46356;DHT22;32066;49.474;11.106;2023-06-05T08:37:13;22.70;56.60
46356;DHT22;32066;49.474;11.106;2023-06-05T08:39:42;22.80;56.90
46356;DHT22;32066;49.474;11.106;2023-06-05T08:42:12;22.80;56.10
46356;DHT22;32066;49.474;11.106;2023-06-05T08:44:44;22.90;56.90
46356;DHT22;32066;49.474;11.106;2023-06-05T08:47:15;23.00;56.80
46356;DHT22;32066;49.474;11.106;2023-06-05T08:49:44;23.10;57.30
46356;DHT22;32066;49.474;11.106;2023-06-05T08:52:13;23.10;56.50
46356;DHT22;32066;49.474;11.106;2023-06-05T08:54:43;23.10;56.50
46356;DHT22;32066;49.474;11.106;2023-06-05T08:57:12;23.20;56.70
46356;DHT22;32066;49.474;11.106;2023-06-05T08:59:41;23.30;56.90
46356;DHT22;32066;49.474;11.106;2023-06-05T09:02:10;23.20;56.40
46356;DHT22;32066;49.474;11.106;2023-06-05T09:04:41;23.00;56.80
46356;DHT22;32066;49.474;11.106;2023-06-05T09:07:11;23.10;57.10
46356;DHT22;32066;49.474;11.106;2023-06-05T09:09:40;23.30;57.20
46356;DHT22;32066;49.474;11.106;2023-06-05T09:12:11;23.50;56.90
46356;DHT22;32066;49.474;11.106;2023-06-05T09:14:39;23.60;57.10
46356;DHT22;32066;49.474;11.106;2023-06-05T09:17:12;23.60;56.50
46356;DHT22;32066;49.474;11.106;2023-06-05T09:19:45;23.40;57.00
46356;DHT22;32066;49.474;11.106;2023-06-05T09:22:16;23.50;56.90
46356;DHT22;32066;49.474;11.106;2023-06-05T09:24:59;23.70;57.10
46356;DHT22;32066;49.474;11.106;2023-06-05T09:27:29;23.80;56.60
46356;DHT22;32066;49.474;11.106;2023-06-05T09:30:03;23.60;56.00
46356;DHT22;32066;49.474;11.106;2023-06-05T09:32:35;23.90;56.50
46356;DHT22;32066;49.474;11.106;2023-06-05T09:35:08;23.90;56.00
46356;DHT22;32066;49.474;11.106;2023-06-05T09:37:44;24.00;56.20
46356;DHT22;32066;49.474;11.106;2023-06-05T09:40:12;24.10;55.80
46356;DHT22;32066;49.474;11.106;2023-06-05T09:42:42;24.20;55.70
46356;DHT22;32066;49.474;11.106;2023-06-05T09:45:11;24.30;55.70
46356;DHT22;32066;49.474;11.106;2023-06-05T09:47:40;24.30;55.00
46356;DHT22;32066;49.474;11.106;2023-06-05T09:50:20;24.30;55.20
46356;DHT22;32066;49.474;11.106;2023-06-05T09:52:50;24.30;55.00
46356;DHT22;32066;49.474;11.106;2023-06-05T09:55:19;24.30;55.40
46356;DHT22;32066;49.474;11.106;2023-06-05T09:57:49;24.40;54.90
46356;DHT22;32066;49.474;11.106;2023-06-05T10:00:19;24.40;54.50
46356;DHT22;32066;49.474;11.106;2023-06-05T10:02:48;24.30;54.60
46356;DHT22;32066;49.474;11.106;2023-06-05T10:05:20;24.50;55.10
46356;DHT22;32066;49.474;11.106;2023-06-05T10:07:51;24.30;55.20
46356;DHT22;32066;49.474;11.106;2023-06-05T10:10:20;24.40;55.10
46356;DHT22;32066;49.474;11.106;2023-06-05T10:12:50;24.40;55.20
46356;DHT22;32066;49.474;11.106;2023-06-05T10:15:22;24.60;55.10
46356;DHT22;32066;49.474;11.106;2023-06-05T10:17:51;24.50;55.10
46356;DHT22;32066;49.474;11.106;2023-06-05T10:20:23;24.80;54.80
46356;DHT22;32066;49.474;11.106;2023-06-05T10:22:51;24.90;54.80
46356;DHT22;32066;49.474;11.106;2023-06-05T10:25:21;25.00;54.90
46356;DHT22;32066;49.474;11.106;2023-06-05T10:28:01;25.00;54.60
46356;DHT22;32066;49.474;11.106;2023-06-05T10:33:56;25.10;54.60
46356;DHT22;32066;49.474;11.106;2023-06-05T10:36:47;24.90;54.20
46356;DHT22;32066;49.474;11.106;2023-06-05T10:39:22;24.80;54.60
46356;DHT22;32066;49.474;11.106;2023-06-05T10:41:52;24.60;54.80
46356;DHT22;32066;49.474;11.106;2023-06-05T10:44:38;24.50;56.30
46356;DHT22;32066;49.474;11.106;2023-06-05T10:50:26;25.10;55.00
46356;DHT22;32066;49.474;11.106;2023-06-05T10:52:59;25.10;55.20
46356;DHT22;32066;49.474;11.106;2023-06-05T10:55:41;25.20;55.10
46356;DHT22;32066;49.474;11.106;2023-06-05T10:58:11;24.80;55.10
46356;DHT22;32066;49.474;11.106;2023-06-05T11:03:55;25.20;54.90
46356;DHT22;32066;49.474;11.106;2023-06-05T11:06:24;25.50;55.30
46356;DHT22;32066;49.474;11.106;2023-06-05T11:09:23;25.60;54.80
46356;DHT22;32066;49.474;11.106;2023-06-05T11:11:57;25.60;53.90
46356;DHT22;32066;49.474;11.106;2023-06-05T11:14:44;25.70;53.60
46356;DHT22;32066;49.474;11.106;2023-06-05T11:17:26;25.70;53.80
46356;DHT22;32066;49.474;11.106;2023-06-05T11:19:55;25.60;53.80
46356;DHT22;32066;49.474;11.106;2023-06-05T11:22:24;25.50;53.80
46356;DHT22;32066;49.474;11.106;2023-06-05T11:28:03;25.80;54.60
46356;DHT22;32066;49.474;11.106;2023-06-05T11:30:38;25.90;54.10
46356;DHT22;32066;49.474;11.106;2023-06-05T11:33:09;25.80;53.90
46356;DHT22;32066;49.474;11.106;2023-06-05T11:35:39;25.60;54.50
46356;DHT22;32066;49.474;11.106;2023-06-05T11:38:09;25.40;54.50
46356;DHT22;32066;49.474;11.106;2023-06-05T11:40:38;25.40;55.10
46356;DHT22;32066;49.474;11.106;2023-06-05T11:43:10;25.50;55.20
46356;DHT22;32066;49.474;11.106;2023-06-05T11:45:41;25.30;55.50
46356;DHT22;32066;49.474;11.106;2023-06-05T11:48:11;25.30;55.70
46356;DHT22;32066;49.474;11.106;2023-06-05T11:50:53;25.50;56.00
46356;DHT22;32066;49.474;11.106;2023-06-05T11:53:22;25.40;55.40
46356;DHT22;32066;49.474;11.106;2023-06-05T11:55:51;25.40;54.90
46356;DHT22;32066;49.474;11.106;2023-06-05T11:58:36;25.40;55.50
46356;DHT22;32066;49.474;11.106;2023-06-05T12:01:07;25.50;55.00
46356;DHT22;32066;49.474;11.106;2023-06-05T12:03:40;25.60;54.60
46356;DHT22;32066;49.474;11.106;2023-06-05T12:06:09;25.90;55.20
46356;DHT22;32066;49.474;11.106;2023-06-05T12:08:39;26.20;55.00
46356;DHT22;32066;49.474;11.106;2023-06-05T12:11:22;26.30;55.00
46356;DHT22;32066;49.474;11.106;2023-06-05T12:13:55;26.30;54.20
46356;DHT22;32066;49.474;11.106;2023-06-05T12:16:31;26.00;54.10
46356;DHT22;32066;49.474;11.106;2023-06-05T12:19:01;25.80;54.80
46356;DHT22;32066;49.474;11.106;2023-06-05T12:21:30;26.00;54.80
46356;DHT22;32066;49.474;11.106;2023-06-05T12:24:02;26.10;54.10
46356;DHT22;32066;49.474;11.106;2023-06-05T12:26:52;26.10;54.50
46356;DHT22;32066;49.474;11.106;2023-06-05T12:29:25;26.10;54.00
46356;DHT22;32066;49.474;11.106;2023-06-05T12:31:55;26.00;54.40
46356;DHT22;32066;49.474;11.106;2023-06-05T12:34:43;26.10;54.40
46356;DHT22;32066;49.474;11.106;2023-06-05T12:37:23;26.10;53.80
46356;DHT22;32066;49.474;11.106;2023-06-05T12:39:53;26.30;53.80
46356;DHT22;32066;49.474;11.106;2023-06-05T12:42:23;26.30;52.80
46356;DHT22;32066;49.474;11.106;2023-06-05T12:44:55;26.40;51.90
46356;DHT22;32066;49.474;11.106;2023-06-05T12:47:23;26.70;51.30
46356;DHT22;32066;49.474;11.106;2023-06-05T12:49:52;26.70;51.90
46356;DHT22;32066;49.474;11.106;2023-06-05T12:52:22;26.40;51.80
46356;DHT22;32066;49.474;11.106;2023-06-05T12:54:52;26.60;52.00
46356;DHT22;32066;49.474;11.106;2023-06-05T12:57:21;26.80;52.40
46356;DHT22;32066;49.474;11.106;2023-06-05T12:59:55;26.80;52.30
46356;DHT22;32066;49.474;11.106;2023-06-05T13:02:24;26.70;52.20
46356;DHT22;32066;49.474;11.106;2023-06-05T13:04:53;26.40;51.80
46356;DHT22;32066;49.474;11.106;2023-06-05T13:07:22;26.10;52.60
46356;DHT22;32066;49.474;11.106;2023-06-05T13:09:51;25.90;53.60
46356;DHT22;32066;49.474;11.106;2023-06-05T13:12:21;26.00;54.20
46356;DHT22;32066;49.474;11.106;2023-06-05T13:14:50;26.00;54.00
46356;DHT22;32066;49.474;11.106;2023-06-05T13:17:21;26.00;54.10
46356;DHT22;32066;49.474;11.106;2023-06-05T13:19:50;25.80;54.40
46356;DHT22;32066;49.474;11.106;2023-06-05T13:22:18;25.90;53.80
46356;DHT22;32066;49.474;11.106;2023-06-05T13:24:47;25.70;53.60
46356;DHT22;32066;49.474;11.106;2023-06-05T13:27:16;25.70;53.80
46356;DHT22;32066;49.474;11.106;2023-06-05T13:29:46;25.70;54.00
46356;DHT22;32066;49.474;11.106;2023-06-05T13:32:15;26.00;54.10
46356;DHT22;32066;49.474;11.106;2023-06-05T13:34:46;26.00;54.40
46356;DHT22;32066;49.474;11.106;2023-06-05T13:37:15;26.20;53.90
46356;DHT22;32066;49.474;11.106;2023-06-05T13:39:44;26.50;53.20
46356;DHT22;32066;49.474;11.106;2023-06-05T13:42:12;26.80;53.20
46356;DHT22;32066;49.474;11.106;2023-06-05T13:44:41;27.10;52.50
46356;DHT22;32066;49.474;11.106;2023-06-05T13:47:10;27.20;52.10
46356;DHT22;32066;49.474;11.106;2023-06-05T13:49:39;27.20;52.20
46356;DHT22;32066;49.474;11.106;2023-06-05T13:52:10;27.20;52.00
46356;DHT22;32066;49.474;11.106;2023-06-05T13:54:39;27.40;52.10
46356;DHT22;32066;49.474;11.106;2023-06-05T13:57:09;27.50;52.30
46356;DHT22;32066;49.474;11.106;2023-06-05T13:59:38;27.40;51.10
46356;DHT22;32066;49.474;11.106;2023-06-05T14:02:07;27.40;51.60
46356;DHT22;32066;49.474;11.106;2023-06-05T14:04:36;27.70;51.50
46356;DHT22;32066;49.474;11.106;2023-06-05T14:07:05;28.10;51.70
46356;DHT22;32066;49.474;11.106;2023-06-05T14:09:37;27.40;51.60
46356;DHT22;32066;49.474;11.106;2023-06-05T14:12:07;27.50;52.30
46356;DHT22;32066;49.474;11.106;2023-06-05T14:14:35;27.60;52.40
46356;DHT22;32066;49.474;11.106;2023-06-05T14:17:04;27.70;50.80
46356;DHT22;32066;49.474;11.106;2023-06-05T14:19:33;27.90;49.90
46356;DHT22;32066;49.474;11.106;2023-06-05T14:22:02;28.10;49.60
46356;DHT22;32066;49.474;11.106;2023-06-05T14:24:31;27.70;49.10
46356;DHT22;32066;49.474;11.106;2023-06-05T14:27:02;27.50;50.10
46356;DHT22;32066;49.474;11.106;2023-06-05T14:29:31;27.90;50.20
46356;DHT22;32066;49.474;11.106;2023-06-05T14:32:01;28.50;49.90
46356;DHT22;32066;49.474;11.106;2023-06-05T14:34:30;28.50;49.60
46356;DHT22;32066;49.474;11.106;2023-06-05T14:36:59;28.70;49.80
46356;DHT22;32066;49.474;11.106;2023-06-05T14:39:28;27.90;50.40
46356;DHT22;32066;49.474;11.106;2023-06-05T14:41:57;28.10;51.20
46356;DHT22;32066;49.474;11.106;2023-06-05T14:44:28;27.70;51.50
46356;DHT22;32066;49.474;11.106;2023-06-05T14:46:57;28.00;51.50
46356;DHT22;32066;49.474;11.106;2023-06-05T14:49:26;28.20;51.10
46356;DHT22;32066;49.474;11.106;2023-06-05T14:51:55;28.40;50.70
46356;DHT22;32066;49.474;11.106;2023-06-05T14:54:23;28.20;50.00
46356;DHT22;32066;49.474;11.106;2023-06-05T14:56:52;28.00;50.40
46356;DHT22;32066;49.474;11.106;2023-06-05T14:59:21;28.10;49.80
46356;DHT22;32066;49.474;11.106;2023-06-05T15:01:52;28.40;48.90
46356;DHT22;32066;49.474;11.106;2023-06-05T15:04:20;28.40;49.30
46356;DHT22;32066;49.474;11.106;2023-06-05T15:06:49;28.60;48.70
46356;DHT22;32066;49.474;11.106;2023-06-05T15:09:19;28.70;48.50
46356;DHT22;32066;49.474;11.106;2023-06-05T15:11:47;28.30;48.60
46356;DHT22;32066;49.474;11.106;2023-06-05T15:14:17;28.50;49.10
46356;DHT22;32066;49.474;11.106;2023-06-05T15:16:53;28.70;49.10
46356;DHT22;32066;49.474;11.106;2023-06-05T15:19:21;28.70;48.90
46356;DHT22;32066;49.474;11.106;2023-06-05T15:21:50;28.40;48.80
46356;DHT22;32066;49.474;11.106;2023-06-05T15:24:19;28.60;49.10
46356;DHT22;32066;49.474;11.106;2023-06-05T15:26:47;28.60;49.40
46356;DHT22;32066;49.474;11.106;2023-06-05T15:29:16;28.70;49.40
46356;DHT22;32066;49.474;11.106;2023-06-05T15:31:45;28.90;48.50
46356;DHT22;32066;49.474;11.106;2023-06-05T15:34:17;28.60;49.00
46356;DHT22;32066;49.474;11.106;2023-06-05T15:36:46;28.00;49.70
46356;DHT22;32066;49.474;11.106;2023-06-05T15:39:14;27.60;51.30
46356;DHT22;32066;49.474;11.106;2023-06-05T15:41:43;27.10;52.50
46356;DHT22;32066;49.474;11.106;2023-06-05T15:44:14;26.90;53.50
46356;DHT22;32066;49.474;11.106;2023-06-05T15:46:44;26.50;54.00
46356;DHT22;32066;49.474;11.106;2023-06-05T15:49:12;26.30;52.70